Time;durP1;ratioP1;P1;durP2;ratioP2;P2;SDS_P1;SDS_P2;PMS_P1;PMS_P2;Temp;Humidity;BMP_temperature;BMP_pressure;BME280_temperature;BME280_humidity;BME280_pressure;Samples;Min_cycle;Max_cycle;Signal;HPM_P1;HPM_P2
2023/04/03 00:00:49;;;;;;;8.77;5.83;;;;;;;1.27;100.00;102790.38;5000122;28;20023;-86
2023/04/03 00:03:15;;;;;;;11.50;6.28;;;;;;;1.25;100.00;102797.66;4999767;28;20058;-86
2023/04/03 00:05:41;;;;;;;13.13;6.63;;;;;;;1.22;100.00;102796.03;5017386;28;20034;-86
2023/04/03 00:08:09;;;;;;;12.53;6.20;;;;;;;1.23;100.00;102792.41;5017626;28;20033;-86
2023/04/03 00:10:38;;;;;;;12.95;6.05;;;;;;;1.21;100.00;102788.97;4999960;28;20040;-86
2023/04/03 00:13:05;;;;;;;12.45;6.18;;;;;;;1.23;100.00;102805.78;4999919;28;20104;-86
2023/04/03 00:15:30;;;;;;;11.55;6.47;;;;;;;1.20;100.00;102803.31;4983552;28;20386;-86
2023/04/03 00:17:56;;;;;;;12.03;6.27;;;;;;;1.25;100.00;102798.50;4999734;28;20026;-86
2023/04/03 00:20:24;;;;;;;8.93;5.40;;;;;;;1.26;100.00;102810.91;5017748;28;20109;-87
2023/04/03 00:22:50;;;;;;;13.93;5.38;;;;;;;1.23;100.00;102811.13;5000036;28;20161;-86
2023/04/03 00:25:15;;;;;;;8.90;5.57;;;;;;;1.19;100.00;102802.44;4999943;28;20478;-88
2023/04/03 00:27:44;;;;;;;10.30;5.53;;;;;;;1.21;100.00;102813.03;4999485;28;20029;-87
2023/04/03 00:30:13;;;;;;;10.98;5.47;;;;;;;1.15;100.00;102814.34;4999331;28;20030;-86
2023/04/03 00:32:39;;;;;;;16.17;5.93;;;;;;;1.17;100.00;102814.22;4999559;28;20128;-86
2023/04/03 00:35:05;;;;;;;8.75;5.53;;;;;;;1.14;100.00;102817.13;5016865;28;20072;-87
2023/04/03 00:37:30;;;;;;;10.85;5.82;;;;;;;1.08;100.00;102818.38;5017704;28;20063;-87
2023/04/03 00:39:56;;;;;;;8.00;5.07;;;;;;;1.10;100.00;102823.63;5017091;28;20500;-86
2023/04/03 00:42:22;;;;;;;8.33;5.77;;;;;;;1.04;100.00;102817.72;4983297;28;20128;-87
2023/04/03 00:44:47;;;;;;;8.70;5.57;;;;;;;1.06;100.00;102822.97;4983317;28;20034;-86
2023/04/03 00:47:17;;;;;;;8.87;5.30;;;;;;;1.02;100.00;102822.31;4999042;28;20061;-86
2023/04/03 00:49:46;;;;;;;10.80;5.25;;;;;;;0.97;100.00;102820.91;4999187;28;20025;-87
2023/04/03 00:52:16;;;;;;;8.10;5.30;;;;;;;0.99;100.00;102825.22;5017429;28;20084;-87
2023/04/03 00:54:43;;;;;;;10.85;5.65;;;;;;;0.97;100.00;102827.13;4999452;28;20430;-86
2023/04/03 00:57:11;;;;;;;10.68;5.35;;;;;;;0.94;100.00;102821.13;4982848;28;20132;-86
2023/04/03 00:59:43;;;;;;;11.25;5.55;;;;;;;0.93;100.00;102820.28;5015122;28;20030;-86
2023/04/03 01:02:12;;;;;;;7.70;5.00;;;;;;;0.95;100.00;102823.69;4999420;28;20494;-86
2023/04/03 01:04:41;;;;;;;7.20;4.60;;;;;;;0.91;100.00;102824.84;4983050;28;20470;-87
2023/04/03 01:07:10;;;;;;;11.45;4.78;;;;;;;0.90;100.00;102816.94;4998477;28;20088;-86
2023/04/03 01:09:37;;;;;;;8.10;4.80;;;;;;;0.84;100.00;102821.75;4998617;28;20033;-87
2023/04/03 01:12:21;;;;;;;8.00;4.35;;;;;;;0.81;100.00;102824.66;4998585;28;20116;-87
2023/04/03 01:14:53;;;;;;;8.77;5.47;;;;;;;0.81;100.00;102832.66;5016011;28;20030;-87
2023/04/03 01:17:44;;;;;;;7.90;4.32;;;;;;;0.76;100.00;102821.41;4998665;28;20037;-86
2023/04/03 01:20:28;;;;;;;8.20;4.20;;;;;;;0.76;100.00;102833.91;4998466;28;20033;-86
2023/04/03 01:23:08;;;;;;;7.40;4.10;;;;;;;0.73;100.00;102834.13;4999340;28;20038;-86
2023/04/03 01:25:39;;;;;;;10.32;4.32;;;;;;;0.67;100.00;102838.06;5015863;28;20034;-86
2023/04/03 01:28:10;;;;;;;8.63;3.90;;;;;;;0.63;100.00;102831.19;4998497;28;20124;-86
2023/04/03 01:31:14;;;;;;;6.00;4.15;;;;;;;0.63;100.00;102837.38;4998857;28;20033;-85
2023/04/03 01:33:43;;;;;;;4.55;3.88;;;;;;;0.60;100.00;102828.72;5016062;28;20061;-86
2023/04/03 01:36:15;;;;;;;8.48;4.45;;;;;;;0.56;100.00;102827.22;4998379;28;20054;-86
2023/04/03 01:38:41;;;;;;;7.20;3.92;;;;;;;0.56;100.00;102837.91;5016613;28;20038;-87
2023/04/03 01:41:09;;;;;;;7.28;4.55;;;;;;;0.49;100.00;102838.31;4998049;28;20032;-87
2023/04/03 01:43:34;;;;;;;8.13;4.38;;;;;;;0.49;100.00;102845.47;4998318;28;20030;-86
2023/04/03 01:46:00;;;;;;;7.22;4.95;;;;;;;0.43;100.00;102837.84;4981948;28;20026;-86
2023/04/03 01:48:25;;;;;;;6.77;4.73;;;;;;;0.41;100.00;102839.75;5016114;28;20533;-86
2023/04/03 01:50:51;;;;;;;15.97;5.07;;;;;;;0.45;100.00;102835.94;4997827;28;20429;-87
2023/04/03 01:53:16;;;;;;;8.60;5.40;;;;;;;0.45;100.00;102825.25;4981939;28;20120;-87
2023/04/03 01:55:42;;;;;;;10.05;5.18;;;;;;;0.48;100.00;102830.41;4998346;28;20084;-86
2023/04/03 01:58:10;;;;;;;7.73;4.77;;;;;;;0.47;100.00;102839.34;4982719;28;20058;-86
2023/04/03 02:00:35;;;;;;;11.90;5.68;;;;;;;0.49;100.00;102835.63;4998019;28;20062;-86
2023/04/03 02:03:02;;;;;;;8.83;5.33;;;;;;;0.45;100.00;102835.94;4998193;28;20065;-86
2023/04/03 02:05:27;;;;;;;9.15;5.47;;;;;;;0.47;100.00;102845.56;4998115;28;20529;-87
2023/04/03 02:07:56;;;;;;;9.83;5.03;;;;;;;0.49;100.00;102840.97;4998037;28;20137;-86
2023/04/03 02:10:24;;;;;;;7.25;5.28;;;;;;;0.46;100.00;102835.00;4997734;28;20276;-86
2023/04/03 02:12:50;;;;;;;9.05;5.78;;;;;;;0.48;100.00;102841.06;4997712;28;20152;-86
2023/04/03 02:15:16;;;;;;;11.73;5.60;;;;;;;0.53;100.00;102844.28;4998007;28;20050;-86
2023/04/03 02:17:45;;;;;;;10.93;5.80;;;;;;;0.51;100.00;102840.88;4997300;28;20073;-86
2023/04/03 02:20:10;;;;;;;9.15;5.20;;;;;;;0.47;100.00;102842.91;4996241;28;20042;-86
2023/04/03 02:22:36;;;;;;;7.05;5.13;;;;;;;0.47;100.00;102842.91;5013845;28;20497;-86
2023/04/03 02:25:01;;;;;;;10.30;5.10;;;;;;;0.46;100.00;102838.50;4997368;28;20030;-86
2023/04/03 02:27:27;;;;;;;11.27;5.20;;;;;;;0.41;100.00;102845.94;4997030;28;20038;-86
2023/04/03 02:29:53;;;;;;;16.50;5.13;;;;;;;0.44;100.00;102836.88;5014735;28;20133;-87
2023/04/03 02:32:18;;;;;;;8.17;5.40;;;;;;;0.40;100.00;102844.25;5013726;28;20038;-86
2023/04/03 02:34:44;;;;;;;6.90;4.80;;;;;;;0.43;100.00;102853.84;4977947;28;20045;-86
2023/04/03 02:37:09;;;;;;;8.27;4.90;;;;;;;0.41;100.00;102853.13;4997448;28;20373;-87
2023/04/03 02:39:39;;;;;;;7.27;5.23;;;;;;;0.37;100.00;102852.47;5014952;28;20446;-86
2023/04/03 02:42:05;;;;;;;10.40;5.18;;;;;;;0.34;100.00;102850.00;4997457;28;20030;-86
2023/04/03 02:44:30;;;;;;;6.27;4.70;;;;;;;0.32;100.00;102852.75;4997220;28;20375;-86
2023/04/03 02:47:03;;;;;;;8.93;5.32;;;;;;;0.30;100.00;102864.50;4996934;28;20049;-87
2023/04/03 02:49:31;;;;;;;10.73;4.80;;;;;;;0.31;100.00;102860.84;4996884;28;20026;-87
2023/04/03 02:51:57;;;;;;;8.00;5.07;;;;;;;0.30;100.00;102861.81;4977174;28;20066;-86
2023/04/03 02:54:24;;;;;;;8.63;4.90;;;;;;;0.27;100.00;102862.03;4997059;28;20091;-87
2023/04/03 02:56:52;;;;;;;10.27;5.25;;;;;;;0.27;100.00;102875.38;5014935;28;20050;-87
2023/04/03 02:59:18;;;;;;;7.13;4.90;;;;;;;0.23;100.00;102866.69;4997356;28;20351;-87
2023/04/03 03:01:43;;;;;;;8.38;4.75;;;;;;;0.22;100.00;102867.63;5013308;28;20061;-87
2023/04/03 03:04:09;;;;;;;10.07;4.93;;;;;;;0.22;100.00;102878.31;4980884;28;20038;-88
2023/04/03 03:06:37;;;;;;;10.30;4.63;;;;;;;0.21;100.00;102873.06;4997327;28;20411;-87
2023/04/03 03:09:03;;;;;;;11.35;5.57;;;;;;;0.18;100.00;102871.47;4980769;28;20038;-87
2023/04/03 03:11:29;;;;;;;8.50;4.97;;;;;;;0.13;100.00;102863.75;4996951;28;20022;-87
2023/04/03 03:13:55;;;;;;;7.70;4.70;;;;;;;0.13;100.00;102865.56;4996627;28;20053;-86
2023/04/03 03:16:21;;;;;;;10.90;4.60;;;;;;;0.12;100.00;102862.03;5014239;28;20108;-86
2023/04/03 03:18:46;;;;;;;8.90;4.70;;;;;;;0.10;100.00;102857.75;4980902;28;20125;-86
2023/04/03 03:21:12;;;;;;;9.57;4.93;;;;;;;0.10;100.00;102858.59;4996628;28;20458;-86
2023/04/03 03:23:37;;;;;;;8.90;4.90;;;;;;;0.11;100.00;102865.66;4996913;28;20034;-86
2023/04/03 03:26:12;;;;;;;9.13;4.40;;;;;;;0.10;100.00;102873.75;4996841;28;20110;-87
2023/04/03 03:28:41;;;;;;;7.10;4.20;;;;;;;0.06;100.00;102867.78;5014052;28;20458;-86
2023/04/03 03:31:09;;;;;;;6.63;4.30;;;;;;;0.09;100.00;102861.38;5013724;28;20033;-86
2023/04/03 03:33:35;;;;;;;10.10;4.38;;;;;;;0.11;100.00;102867.47;4996003;28;20038;-86
2023/04/03 03:36:03;;;;;;;7.90;4.22;;;;;;;0.08;100.00;102863.19;4979710;28;20030;-86
2023/04/03 03:38:31;;;;;;;6.40;4.10;;;;;;;0.05;100.00;102871.38;4996262;28;20037;-86
2023/04/03 03:40:56;;;;;;;7.95;4.18;;;;;;;0.04;100.00;102874.16;4980879;28;20068;-86
2023/04/03 03:43:22;;;;;;;6.67;4.13;;;;;;;0.02;100.00;102879.59;5013682;28;20135;-86
2023/04/03 03:45:54;;;;;;;8.57;3.83;;;;;;;-0.02;100.00;102886.91;4980722;28;20022;-86
2023/04/03 03:48:21;;;;;;;8.97;4.03;;;;;;;-0.03;100.00;102887.00;4995959;28;20048;-86
2023/04/03 03:50:47;;;;;;;8.27;4.10;;;;;;;-0.04;100.00;102898.66;4996181;28;20504;-86
2023/04/03 03:53:13;;;;;;;9.30;4.13;;;;;;;-0.08;100.00;102883.78;4996251;28;20071;-86
2023/04/03 03:55:38;;;;;;;7.33;3.67;;;;;;;-0.11;100.00;102892.84;4995780;28;20136;-85
2023/04/03 03:58:04;;;;;;;6.32;3.30;;;;;;;-0.12;100.00;102893.78;4995818;28;20038;-86
2023/04/03 04:00:30;;;;;;;7.50;3.50;;;;;;;-0.11;100.00;102898.16;4979705;28;20030;-86
2023/04/03 04:02:56;;;;;;;11.30;4.15;;;;;;;-0.12;100.00;102891.09;5013443;28;20033;-86
2023/04/03 04:05:22;;;;;;;9.17;3.80;;;;;;;-0.13;100.00;102892.09;4995831;28;20390;-85
2023/04/03 04:07:48;;;;;;;8.40;3.58;;;;;;;-0.09;100.00;102896.28;5013581;28;20037;-86
2023/04/03 04:10:14;;;;;;;9.17;3.57;;;;;;;-0.10;100.00;102901.72;4996651;28;20088;-86
2023/04/03 04:12:39;;;;;;;7.90;3.65;;;;;;;-0.07;100.00;102901.53;4997150;28;20352;-85
2023/04/03 04:15:05;;;;;;;8.73;3.63;;;;;;;-0.07;100.00;102901.53;4980042;28;20037;-88
2023/04/03 04:17:31;;;;;;;6.27;3.00;;;;;;;-0.09;100.00;102895.41;4963520;28;20030;-86
2023/04/03 04:19:57;;;;;;;6.72;3.45;;;;;;;-0.10;100.00;102896.38;4996506;28;20049;-86
2023/04/03 04:22:22;;;;;;;8.47;2.80;;;;;;;-0.11;100.00;102900.00;5013364;28;20105;-86
2023/04/03 04:24:48;;;;;;;8.03;3.43;;;;;;;-0.14;100.00;102893.03;4995531;28;20034;-85
2023/04/03 04:27:13;;;;;;;6.10;3.50;;;;;;;-0.17;100.00;102892.38;5013232;28;20037;-85
2023/04/03 04:29:39;;;;;;;6.57;2.87;;;;;;;-0.17;100.00;102892.38;5012183;28;20030;-85
2023/04/03 04:32:04;;;;;;;8.00;3.20;;;;;;;-0.17;100.00;102893.22;5013154;28;20038;-85
2023/04/03 04:34:30;;;;;;;7.10;2.92;;;;;;;-0.21;100.00;102892.56;4995562;28;20026;-85
2023/04/03 04:36:55;;;;;;;6.53;2.83;;;;;;;-0.20;100.00;102893.41;4995984;28;20033;-85
2023/04/03 04:39:21;;;;;;;8.17;2.73;;;;;;;-0.23;100.00;102897.13;4995974;28;20025;-85
2023/04/03 04:41:49;;;;;;;5.55;2.75;;;;;;;-0.21;100.00;102899.69;4979469;28;20029;-85
2023/04/03 04:44:14;;;;;;;6.27;2.60;;;;;;;-0.20;100.00;102896.06;5016193;28;20123;-85
2023/04/03 04:46:40;;;;;;;5.60;2.53;;;;;;;-0.20;100.00;102901.41;4999077;28;20038;-85
2023/04/03 04:49:07;;;;;;;6.17;2.40;;;;;;;-0.21;100.00;102905.91;4999932;28;20052;-85
2023/04/03 04:51:33;;;;;;;6.82;2.50;;;;;;;-0.26;100.00;102913.31;5016874;28;20105;-85
2023/04/03 04:53:58;;;;;;;7.53;2.50;;;;;;;-0.29;100.00;102899.31;5016605;28;20054;-86
2023/04/03 04:56:25;;;;;;;5.23;2.10;;;;;;;-0.31;100.00;102907.41;4999160;28;20065;-85
2023/04/03 04:58:50;;;;;;;8.05;3.10;;;;;;;-0.30;100.00;102908.25;4999203;28;20029;-85
2023/04/03 05:01:18;;;;;;;4.80;2.37;;;;;;;-0.33;100.00;102916.47;4999059;28;20088;-86
2023/04/03 05:03:43;;;;;;;3.85;2.10;;;;;;;-0.37;100.00;102924.66;5016688;28;20030;-85
2023/04/03 05:06:09;;;;;;;5.10;2.67;;;;;;;-0.34;100.00;102928.91;4982782;28;20040;-85
2023/04/03 05:08:35;;;;;;;5.60;2.10;;;;;;;-0.34;100.00;102920.06;4998869;28;20041;-84
2023/04/03 05:11:06;;;;;;;4.70;2.60;;;;;;;-0.34;100.00;102923.56;4998652;28;20041;-85
2023/04/03 05:13:33;;;;;;;4.93;2.55;;;;;;;-0.38;100.00;102911.41;4999439;28;20470;-86
2023/04/03 05:15:59;;;;;;;5.82;2.20;;;;;;;-0.31;100.00;102931.44;4982261;28;20038;-84
2023/04/03 05:18:25;;;;;;;9.17;2.20;;;;;;;-0.34;100.00;102928.06;4998454;28;20030;-86
2023/04/03 05:20:53;;;;;;;5.47;2.40;;;;;;;-0.34;100.00;102928.91;4998633;28;20467;-86
2023/04/03 05:23:24;;;;;;;6.90;1.80;;;;;;;-0.30;100.00;102932.28;4994707;28;20050;-86
2023/04/03 05:25:49;;;;;;;7.67;2.10;;;;;;;-0.26;100.00;102933.81;4999185;28;20441;-81
2023/04/03 05:28:15;;;;;;;4.50;2.20;;;;;;;-0.27;100.00;102930.25;4998526;28;20022;-82
2023/04/03 05:30:43;;;;;;;5.43;1.90;;;;;;;-0.25;100.00;102924.84;5016546;28;20038;-82
2023/04/03 05:33:09;;;;;;;4.72;2.17;;;;;;;-0.22;100.00;102941.53;4998967;28;20030;-81
2023/04/03 05:35:39;;;;;;;3.97;2.08;;;;;;;-0.18;100.00;102939.53;5015682;28;20036;-81
2023/04/03 05:38:05;;;;;;;4.10;2.20;;;;;;;-0.20;100.00;102939.63;5016055;28;20037;-81
2023/04/03 05:40:30;;;;;;;5.93;2.17;;;;;;;-0.17;100.00;102949.25;4998064;28;20072;-81
2023/04/03 05:42:56;;;;;;;7.97;2.20;;;;;;;-0.11;100.00;102948.88;4998151;28;20070;-83
2023/04/03 05:45:24;;;;;;;6.77;1.93;;;;;;;-0.07;100.00;102961.09;4998546;28;20037;-83
2023/04/03 05:47:50;;;;;;;4.22;1.95;;;;;;;-0.04;100.00;102952.03;4998292;28;20077;-84
2023/04/03 05:50:15;;;;;;;5.10;2.10;;;;;;;-0.03;100.00;102954.63;4965602;28;20475;-85
2023/04/03 05:52:48;;;;;;;7.30;1.90;;;;;;;-0.01;100.00;102947.34;4998449;28;20034;-85
2023/04/03 05:55:14;;;;;;;4.45;1.98;;;;;;;0.03;100.00;102945.38;4998017;28;20117;-84
2023/04/03 05:57:40;;;;;;;6.80;1.65;;;;;;;0.07;100.00;102949.53;4997917;28;20026;-84
2023/04/03 06:00:09;;;;;;;7.63;2.50;;;;;;;0.09;100.00;102947.66;4981276;28;20034;-84
2023/04/03 06:02:37;;;;;;;6.00;2.30;;;;;;;0.14;100.00;102953.56;4998069;28;20458;-84
2023/04/03 06:05:05;;;;;;;7.40;1.80;;;;;;;0.21;100.00;102951.38;4981131;28;20096;-84
2023/04/03 06:07:31;;;;;;;3.15;1.60;;;;;;;0.22;100.00;102955.75;4998096;28;20034;-83
2023/04/03 06:09:57;;;;;;;6.50;2.13;;;;;;;0.25;100.00;102960.03;4997544;28;20104;-83
2023/04/03 06:12:23;;;;;;;5.35;2.10;;;;;;;0.29;100.00;102959.75;4997372;28;20029;-84
2023/04/03 06:14:52;;;;;;;5.47;1.90;;;;;;;0.36;100.00;102962.91;5014317;28;20041;-84
2023/04/03 06:17:18;;;;;;;5.50;1.90;;;;;;;0.38;100.00;102962.81;4981169;28;20041;-84
2023/04/03 06:19:49;;;;;;;5.47;2.00;;;;;;;0.38;100.00;102961.00;4997586;28;20028;-83
2023/04/03 06:22:17;;;;;;;5.57;2.20;;;;;;;0.45;100.00;102967.66;4998147;28;20040;-84
2023/04/03 06:24:43;;;;;;;6.57;2.03;;;;;;;0.50;100.00;102972.72;4997277;28;20029;-84
2023/04/03 06:27:10;;;;;;;7.90;2.17;;;;;;;0.54;100.00;102974.25;4997327;28;20492;-84
2023/04/03 06:29:36;;;;;;;5.30;1.63;;;;;;;0.60;100.00;102964.97;4981054;28;20033;-84
2023/04/03 06:32:04;;;;;;;6.80;1.65;;;;;;;0.62;100.00;102969.28;4961169;28;20045;-85
2023/04/03 06:34:29;;;;;;;5.03;1.75;;;;;;;0.68;100.00;102971.56;4979706;28;20034;-84
2023/04/03 06:36:57;;;;;;;8.30;1.80;;;;;;;0.73;100.00;102967.72;4996700;28;20394;-84
2023/04/03 06:39:23;;;;;;;7.45;1.70;;;;;;;0.77;100.00;102977.25;4980704;28;20030;-84
2023/04/03 06:41:59;;;;;;;;;;;;;;;;;;;;;
2023/04/03 06:44:25;;;;;;;4.45;1.70;;;;;;;0.86;100.00;102964.16;5014840;28;20032;-84
2023/04/03 06:46:51;;;;;;;3.63;1.77;;;;;;;0.90;100.00;102970.19;4996939;28;20120;-84
2023/04/03 06:49:17;;;;;;;5.40;1.47;;;;;;;0.96;100.00;102977.78;4980035;28;20382;-84
2023/04/03 06:51:42;;;;;;;3.72;1.35;;;;;;;1.02;100.00;102988.09;4980324;28;20033;-85
2023/04/03 06:54:08;;;;;;;4.40;1.50;;;;;;;1.03;100.00;102987.13;5014430;28;20446;-83
2023/04/03 06:56:36;;;;;;;5.87;1.87;;;;;;;1.08;100.00;102977.94;4980710;28;20045;-85
2023/04/03 06:59:02;;;;;;;6.40;1.52;;;;;;;1.11;100.00;102986.63;4996739;28;20386;-84
2023/04/03 07:01:31;;;;;;;5.63;1.63;;;;;;;1.14;100.00;102983.75;4996384;28;20048;-84
2023/04/03 07:03:57;;;;;;;4.82;1.67;;;;;;;1.22;100.00;102986.75;4997177;28;20026;-84
2023/04/03 07:06:22;;;;;;;4.53;1.50;;;;;;;1.27;100.00;102986.47;5013473;28;20398;-84
2023/04/03 07:08:48;;;;;;;5.83;1.47;;;;;;;1.34;100.00;102987.75;4996395;28;20109;-84
2023/04/03 07:11:14;;;;;;;4.82;1.60;;;;;;;1.40;100.00;102998.06;5014089;28;20037;-83
2023/04/03 07:13:43;;;;;;;6.25;1.85;;;;;;;1.44;100.00;102987.16;4981163;28;20065;-84
2023/04/03 07:16:09;;;;;;;8.07;1.63;;;;;;;1.51;100.00;102992.00;5014146;28;20041;-84
2023/04/03 07:18:35;;;;;;;6.50;1.40;;;;;;;1.57;100.00;102990.72;4980147;28;20112;-84
2023/04/03 07:21:01;;;;;;;4.65;1.40;;;;;;;1.64;100.00;103001.84;4964589;28;20034;-84
2023/04/03 07:23:27;;;;;;;4.85;1.52;;;;;;;1.71;100.00;102996.00;5012847;28;20084;-85
2023/04/03 07:25:53;;;;;;;4.20;1.53;;;;;;;1.73;100.00;102987.88;4996406;28;20081;-84
2023/04/03 07:28:22;;;;;;;6.65;1.75;;;;;;;1.81;100.00;103000.72;4996223;28;20125;-84
2023/04/03 07:30:59;;;;;;;7.95;2.00;;;;;;;1.82;100.00;102994.41;5013768;28;20395;-85
2023/04/03 07:33:26;;;;;;;2.40;1.00;;;;;;;1.88;99.52;103010.06;5012982;28;20029;-84
2023/04/03 07:35:57;;;;;;;5.30;1.67;;;;;;;1.92;98.98;103009.75;4996051;28;20064;-84
2023/04/03 07:38:28;;;;;;;5.03;1.85;;;;;;;1.98;98.68;103016.50;5013846;28;20101;-84
2023/04/03 07:40:54;;;;;;;6.75;1.50;;;;;;;2.03;98.84;103016.19;4980219;28;20037;-87
2023/04/03 07:43:24;;;;;;;4.90;1.20;;;;;;;2.09;98.37;103010.38;4976292;28;20030;-84
2023/04/03 07:45:51;;;;;;;8.63;1.25;;;;;;;2.12;97.24;103007.50;4996325;28;20061;-84
2023/04/03 07:48:18;;;;;;;3.20;1.60;;;;;;;2.20;97.25;103013.19;4995571;28;20050;-83
2023/04/03 07:50:44;;;;;;;5.07;1.35;;;;;;;2.25;97.42;103013.72;5012938;28;20034;-84
2023/04/03 07:53:10;;;;;;;5.90;1.83;;;;;;;2.31;96.91;103015.09;5013499;28;20029;-84
2023/04/03 07:55:42;;;;;;;5.83;1.77;;;;;;;2.36;96.60;103012.09;4995873;28;20034;-84
2023/04/03 07:58:13;;;;;;;4.40;1.25;;;;;;;2.40;95.38;103003.72;5013342;28;20029;-84
2023/04/03 08:00:39;;;;;;;2.58;1.33;;;;;;;2.49;95.53;103012.94;4996274;28;20065;-84
2023/04/03 08:03:06;;;;;;;4.15;1.30;;;;;;;2.54;93.63;103007.25;4995908;28;20490;-84
2023/04/03 08:05:35;;;;;;;5.65;1.40;;;;;;;2.62;93.63;103012.94;5013894;28;20112;-84
2023/04/03 08:08:01;;;;;;;4.77;1.50;;;;;;;2.69;93.19;103010.66;4996651;28;20040;-84
2023/04/03 08:10:31;;;;;;;3.13;1.17;;;;;;;2.76;91.95;103014.59;4995989;28;20030;-84
2023/04/03 08:12:56;;;;;;;8.07;1.43;;;;;;;2.81;91.58;103005.28;4995648;28;20030;-84
2023/04/03 08:15:30;;;;;;;5.28;1.08;;;;;;;2.89;90.78;103012.75;4995969;28;20060;-84
2023/04/03 08:17:55;;;;;;;4.13;1.00;;;;;;;2.95;89.37;103011.44;5015894;28;20374;-84
2023/04/03 08:20:21;;;;;;;4.68;1.27;;;;;;;2.98;88.67;103009.41;4983744;28;20486;-84
2023/04/03 08:22:49;;;;;;;3.03;1.30;;;;;;;3.07;89.53;103015.06;4983621;28;20084;-83
2023/04/03 08:25:15;;;;;;;2.97;1.10;;;;;;;3.09;87.18;103011.31;5017307;28;20044;-84
2023/04/03 08:27:44;;;;;;;2.97;1.03;;;;;;;3.13;85.24;103010.13;4999780;28;20537;-84
2023/04/03 08:30:10;;;;;;;6.00;1.25;;;;;;;3.14;86.41;103002.91;5015560;28;20018;-84
2023/04/03 08:32:36;;;;;;;5.60;1.30;;;;;;;3.21;86.50;103012.22;4999305;28;20083;-84
2023/04/03 08:35:03;;;;;;;8.57;1.75;;;;;;;3.27;85.91;103019.81;4999520;28;20038;-84
2023/04/03 08:37:29;;;;;;;4.67;1.33;;;;;;;3.33;84.19;103016.66;4999727;28;20068;-84
2023/04/03 08:39:54;;;;;;;5.03;1.40;;;;;;;3.36;84.00;103014.75;4983841;28;20124;-84
2023/04/03 08:42:41;;;;;;;4.83;1.23;;;;;;;3.44;82.59;103025.75;5017382;28;20026;-84
2023/04/03 08:45:22;;;;;;;5.18;1.30;;;;;;;3.47;82.69;103023.69;4999094;28;20497;-84
2023/04/03 08:48:00;;;;;;;7.25;1.23;;;;;;;3.50;83.49;103026.16;4998579;28;20046;-84
2023/04/03 08:50:46;;;;;;;4.80;1.00;;;;;;;3.62;82.32;103021.69;4999494;28;20037;-84
2023/04/03 08:53:22;;;;;;;4.65;1.02;;;;;;;3.68;81.37;103028.44;5016805;28;20038;-84
2023/04/03 08:55:51;;;;;;;4.65;1.30;;;;;;;3.71;81.11;103025.50;4998998;28;20038;-84
2023/04/03 08:58:20;;;;;;;4.78;0.80;;;;;;;3.80;77.12;103027.47;5015103;28;20026;-84
2023/04/03 09:00:50;;;;;;;6.30;0.90;;;;;;;3.87;75.24;103030.56;5016759;28;20080;-84
2023/04/03 09:03:19;;;;;;;2.83;1.00;;;;;;;3.92;73.96;103019.47;5016641;28;20074;-84
2023/04/03 09:05:48;;;;;;;2.05;0.70;;;;;;;3.98;70.78;103027.88;4998749;28;20026;-84
2023/04/03 09:08:25;;;;;;;4.63;0.70;;;;;;;4.09;70.08;103024.41;4998643;28;20030;-84
2023/04/03 09:11:18;;;;;;;2.97;0.68;;;;;;;4.24;69.74;103030.41;5016531;28;20033;-84
2023/04/03 09:14:14;;;;;;;3.45;0.60;;;;;;;4.33;68.08;103026.13;4999028;28;20458;-84
2023/04/03 09:17:05;;;;;;;3.53;1.10;;;;;;;4.46;68.17;103026.88;4998842;28;20084;-84
2023/04/03 09:19:30;;;;;;;2.60;0.50;;;;;;;4.56;62.82;103035.03;4998753;28;20038;-84
2023/04/03 09:21:57;;;;;;;6.78;0.57;;;;;;;4.58;60.30;103033.09;4998609;28;20041;-84
2023/04/03 09:24:24;;;;;;;4.05;0.73;;;;;;;4.63;58.12;103020.13;4999150;28;20022;-84
2023/04/03 09:27:02;;;;;;;1.70;0.40;;;;;;;4.77;56.52;103029.81;4998686;28;20492;-84
2023/04/03 09:29:27;;;;;;;4.90;0.60;;;;;;;4.83;55.16;103036.53;4997992;28;20398;-85
2023/04/03 09:32:01;;;;;;;1.52;0.40;;;;;;;4.89;56.11;103025.28;4998028;28;20034;-84
2023/04/03 09:34:32;;;;;;;1.23;0.40;;;;;;;5.00;54.45;103038.69;4999121;28;20034;-84
2023/04/03 09:37:05;;;;;;;3.73;0.57;;;;;;;5.03;53.66;103027.66;5015905;28;20037;-84
2023/04/03 09:39:50;;;;;;;1.95;0.57;;;;;;;5.07;53.19;103023.75;4998638;28;20033;-84
2023/04/03 09:42:23;;;;;;;2.47;0.40;;;;;;;5.14;52.22;103012.47;4998417;28;20044;-84
2023/04/03 09:45:21;;;;;;;2.13;0.43;;;;;;;5.22;54.87;103016.25;5015589;28;20394;-84
2023/04/03 09:48:23;;;;;;;1.00;0.40;;;;;;;5.37;51.93;103015.97;5015479;28;20470;-85
2023/04/03 09:51:04;;;;;;;1.23;0.40;;;;;;;5.44;52.79;103003.69;4997039;28;20490;-84
2023/04/03 09:53:43;;;;;;;2.28;0.50;;;;;;;5.56;50.66;103008.03;4997827;28;20521;-85
2023/04/03 09:56:21;;;;;;;1.90;0.45;;;;;;;5.65;52.08;102990.25;4998198;28;20077;-85
2023/04/03 09:58:48;;;;;;;1.85;0.57;;;;;;;5.77;48.18;102993.75;4997957;28;20041;-86
2023/04/03 10:01:34;;;;;;;1.30;0.43;;;;;;;5.85;48.50;102991.25;4998767;28;20021;-86
2023/04/03 10:04:19;;;;;;;1.67;0.40;;;;;;;5.93;45.74;102994.13;4998437;28;20033;-86
2023/04/03 10:06:53;;;;;;;1.45;0.43;;;;;;;5.99;45.24;102986.56;5015189;28;20544;-86
2023/04/03 10:09:21;;;;;;;2.05;0.43;;;;;;;6.11;45.56;102990.88;5015303;28;20036;-85
2023/04/03 10:12:06;;;;;;;2.72;0.80;;;;;;;6.22;47.46;102976.47;5014622;28;20034;-86
2023/04/03 10:14:57;;;;;;;2.05;0.40;;;;;;;6.32;46.13;102988.16;4997553;28;20446;-86
2023/04/03 10:17:58;;;;;;;3.17;0.50;;;;;;;6.41;47.08;102978.41;4997562;28;20042;-86
2023/04/03 10:20:37;;;;;;;2.75;0.60;;;;;;;6.52;45.65;102985.53;4997513;28;20033;-86
2023/04/03 10:23:20;;;;;;;2.15;0.40;;;;;;;6.64;45.42;102993.41;4997239;28;20025;-85
2023/04/03 10:26:19;;;;;;;1.38;0.35;;;;;;;6.74;43.38;102988.03;4997391;28;20053;-86
2023/04/03 10:28:54;;;;;;;0.77;0.40;;;;;;;6.89;43.89;102987.63;4997522;28;20037;-86
2023/04/03 10:31:37;;;;;;;2.07;0.53;;;;;;;7.02;45.88;102980.13;4997195;28;20053;-86
2023/04/03 10:34:27;;;;;;;1.63;0.50;;;;;;;7.09;43.88;102972.34;4997159;28;20184;-87
2023/04/03 10:37:10;;;;;;;1.85;0.50;;;;;;;7.20;42.98;102956.88;4997265;28;20038;-87
2023/04/03 10:39:53;;;;;;;1.80;0.50;;;;;;;7.37;44.50;102959.84;4997812;28;20041;-86
2023/04/03 10:42:40;;;;;;;2.38;0.30;;;;;;;7.50;43.80;102952.31;4996684;28;20033;-86
2023/04/03 10:45:20;;;;;;;1.80;0.50;;;;;;;7.66;41.64;102940.91;4997234;28;20050;-86
2023/04/03 10:47:56;;;;;;;2.10;0.40;;;;;;;7.79;43.20;102942.44;4997166;28;20088;-87
2023/04/03 10:51:00;;;;;;;0.95;0.30;;;;;;;8.03;43.03;102944.66;4997073;28;20038;-87
2023/04/03 10:54:00;;;;;;;2.13;0.40;;;;;;;8.26;42.86;102940.56;4993696;28;20026;-87
2023/04/03 10:57:01;;;;;;;3.30;0.50;;;;;;;8.50;41.37;102936.50;5013530;28;20034;-87
2023/04/03 10:59:35;;;;;;;3.33;0.30;;;;;;;8.74;39.63;102926.97;4979236;28;20528;-87
2023/04/03 11:02:11;;;;;;;4.32;0.40;;;;;;;9.00;39.67;102918.13;4997219;28;20030;-87
2023/04/03 11:04:59;;;;;;;0.95;0.50;;;;;;;9.32;38.74;102914.84;4997177;28;20187;-87
2023/04/03 11:07:31;;;;;;;2.63;0.43;;;;;;;9.59;37.52;102923.88;4996137;28;20038;-87
2023/04/03 11:10:16;;;;;;;2.15;0.50;;;;;;;9.74;37.96;102922.28;4996689;28;20029;-87
2023/04/03 11:12:56;;;;;;;0.90;0.50;;;;;;;9.96;36.63;102923.59;4996751;28;20041;-89
2023/04/03 11:15:24;;;;;;;1.48;0.57;;;;;;;10.39;36.59;102926.38;4997098;28;20048;-87
2023/04/03 11:18:11;;;;;;;0.70;0.50;;;;;;;11.19;35.05;102919.63;4996264;28;20029;-86
2023/04/03 11:20:41;;;;;;;1.48;0.40;;;;;;;14.68;30.99;102909.69;4996126;28;20018;-87
2023/04/03 11:23:23;;;;;;;1.58;0.50;;;;;;;18.13;28.34;102897.06;4996526;28;20018;-87
2023/04/03 11:25:59;;;;;;;1.60;0.47;;;;;;;20.97;24.75;102896.88;5013650;28;20033;-86
2023/04/03 11:28:33;;;;;;;3.03;0.52;;;;;;;22.97;20.98;102891.28;5013443;28;20034;-86
2023/04/03 11:31:29;;;;;;;1.08;0.60;;;;;;;24.69;22.31;102895.16;5014146;28;20041;-86
2023/04/03 11:34:25;;;;;;;1.85;0.70;;;;;;;25.98;21.65;102885.03;4996601;28;20042;-86
2023/04/03 11:37:00;;;;;;;0.95;0.70;;;;;;;27.42;17.81;102877.78;4996600;28;20033;-86
2023/04/03 11:39:33;;;;;;;1.67;0.90;;;;;;;28.87;16.82;102878.81;4996135;28;20026;-85
2023/04/03 11:42:26;;;;;;;1.85;0.80;;;;;;;29.61;18.46;102874.25;4996983;28;20057;-85